Airfield :
LOGIN :

Register | Disclaimer

   EN    FR    IT 

 










Legend :    VFR   Marginal VFR   IFR   Intensive IFR   Very Intensive IFR
Visi :
Ceiling :
>= 8 km
>= 3000ft
5 to 8 km
1000 to 3000 ft
1500m to 5 km
500 to 1000 ft
800 to 1500m
200 to 500 ft
< 800m
< 200 ft
Symbols :   Thunderstorms  Fog  Heavy snow  Heavy precipitations  Wind > 20 kt
SIGMETs :     Misc.  Thunderstorms  Icing  Turbulence  Mountain Waves  Volcanic Ashes







- Airport Elevation : 465 ft
- IATA code : LEJ


EDDP - Leipzig Halle

CURRENT METAR :
  • 172250Z 18003KT 9999 BKN034 00/M01 Q1023 NOSIG

EXPIRED METARs :
  • 172220Z 21004KT 9999 BKN037 01/M01 Q1023 NOSIG
  • 172150Z 22005KT 9999 SCT019 BKN035 01/M00 Q1023 NOSIG
  • 172120Z 22003KT 200V260 9999 SCT024 BKN033 01/M01 Q1023 NOSIG
  • 172050Z 22004KT 9999 FEW024 BKN037 01/M00 Q1023 NOSIG
  • 172020Z 25005KT 9999 FEW025 OVC032 00/M00 Q1023 NOSIG

TAF TAF EDDP
Valid from the 17 at 18:00 until the 18 at 18:00 UTC


171700Z 1718/1818 28006KT 9999 SCT030
BECMG 1719/1721 22005KT
BECMG 1723/1801 16007KT
No reported NOTAMs for that airfield.



MET'MAP, your aeronautical weather chart ! - Copyright ORBIFLY December 2007 - Disclaimer

ORBIFLY MET'MAP TEAM :

Programming & Development : Alexandra Zaïnal
Concept & Development : Baudouin d'Aumeries
Co-Development & Prog : Marc-Olivier Méhu
Technical & hardware support : Manuel Goepfert

Contact : metmap@orbifly.com




SOURCES & CREDITS :

   NOAA